Time;durP1;ratioP1;P1;durP2;ratioP2;P2;SDS_P1;SDS_P2;PMS_P1;PMS_P2;Temp;Humidity;BMP_temperature;BMP_pressure;BME280_temperature;BME280_humidity;BME280_pressure;Samples;Min_cycle;Max_cycle;Signal;HPM_P1;HPM_P2
2022/11/05 00:19:08;;;;;;;33.40;18.60;;;;;;;18.87;42.35;100158.35;104899;1291;72358;-90
2022/11/05 00:27:08;;;;;;;28.70;18.30;;;;;;;18.86;42.30;100167.47;105096;1282;75409;-91
2022/11/05 00:29:33;;;;;;;28.10;18.50;;;;;;;18.86;42.48;100170.52;106072;1279;69998;-91
2022/11/05 00:34:34;;;;;;;31.70;18.00;;;;;;;18.86;42.45;100174.20;104832;1287;69836;-90
2022/11/05 00:37:00;;;;;;;30.30;17.90;;;;;;;18.85;42.48;100172.73;105045;1279;70073;-91
2022/11/05 00:39:25;;;;;;;26.10;17.20;;;;;;;18.86;42.47;100174.30;104920;1295;70031;-91
2022/11/05 00:50:09;;;;;;;26.80;18.10;;;;;;;18.85;42.48;100169.09;104800;1291;69990;-87
2022/11/05 00:55:23;;;;;;;31.40;17.70;;;;;;;18.84;42.52;100166.44;104782;1291;83963;-90
2022/11/05 00:57:49;;;;;;;28.50;18.40;;;;;;;18.83;42.66;100161.85;104861;1288;72298;-90
2022/11/05 01:00:14;;;;;;;31.60;17.70;;;;;;;18.83;42.68;100156.79;105127;1295;70076;-90
2022/11/05 01:02:40;;;;;;;28.90;18.40;;;;;;;18.82;42.60;100152.82;104509;1290;70530;-90
2022/11/05 01:05:05;;;;;;;29.30;17.80;;;;;;;18.82;42.69;100150.84;104475;1297;70034;-90
2022/11/05 01:07:31;;;;;;;31.20;18.50;;;;;;;18.82;42.69;100151.48;104384;1291;69971;-90
2022/11/05 01:09:56;;;;;;;27.60;17.30;;;;;;;18.82;42.66;100150.48;104218;1293;70048;-90
2022/11/05 01:12:22;;;;;;;27.30;17.80;;;;;;;18.81;42.70;100151.08;104367;1290;70118;-90
2022/11/05 01:14:47;;;;;;;30.40;18.20;;;;;;;18.81;42.73;100148.69;104350;1289;70115;-90
2022/11/05 01:17:13;;;;;;;35.30;19.00;;;;;;;18.80;42.82;100152.96;104550;1294;69504;-90
2022/11/05 01:19:38;;;;;;;31.60;18.20;;;;;;;18.79;42.71;100150.77;104403;1287;70060;-90
2022/11/05 01:22:04;;;;;;;31.50;18.70;;;;;;;18.78;42.78;100148.84;104569;1284;70110;-90
2022/11/05 01:24:29;;;;;;;29.00;17.80;;;;;;;18.78;42.72;100144.25;104288;1291;69888;-90
2022/11/05 01:26:55;;;;;;;30.00;18.00;;;;;;;18.78;42.82;100144.60;104689;1287;70208;-90
2022/11/05 01:29:20;;;;;;;30.10;18.40;;;;;;;18.78;42.83;100143.33;104510;1290;69917;-91
2022/11/05 01:34:12;;;;;;;30.40;18.30;;;;;;;18.77;42.71;100139.77;104906;1285;69836;-90
2022/11/05 01:36:38;;;;;;;27.00;17.50;;;;;;;18.77;42.80;100135.53;104980;1291;69930;-91
2022/11/05 01:39:03;;;;;;;29.10;17.60;;;;;;;18.77;42.70;100135.78;104776;1281;69982;-90
2022/11/05 01:41:29;;;;;;;25.00;18.10;;;;;;;18.77;42.75;100131.70;104968;1288;70036;-90
2022/11/05 01:43:56;;;;;;;28.60;18.00;;;;;;;18.77;42.85;100137.31;105157;1287;70044;-90
2022/11/05 01:49:14;;;;;;;28.70;18.50;;;;;;;18.77;42.86;100134.60;104900;1292;73265;-90
2022/11/05 01:51:39;;;;;;;28.30;18.80;;;;;;;18.75;42.81;100126.23;105088;1289;70043;-90
2022/11/05 01:54:06;;;;;;;26.50;17.20;;;;;;;18.75;42.79;100127.89;105136;1290;70033;-91
2022/11/05 01:56:40;;;;;;;25.10;16.80;;;;;;;18.76;42.88;100132.58;104878;1290;69986;-91
2022/11/05 01:59:08;;;;;;;29.30;18.40;;;;;;;18.76;42.87;100126.66;104810;1290;84076;-91
2022/11/05 02:04:24;;;;;;;27.80;17.30;;;;;;;18.75;42.95;100117.02;104738;1287;67721;-90
2022/11/05 02:06:51;;;;;;;29.00;16.90;;;;;;;18.75;42.89;100117.33;104865;1294;70061;-90
2022/11/05 02:09:27;;;;;;;26.80;18.30;;;;;;;18.74;42.98;100113.05;104988;1290;74399;-90
2022/11/05 02:11:53;;;;;;;26.30;17.60;;;;;;;18.75;43.05;100115.28;105144;1288;82742;-90
2022/11/05 02:14:19;;;;;;;26.40;17.50;;;;;;;18.74;43.07;100113.30;104887;1288;70126;-90
2022/11/05 02:16:57;;;;;;;25.70;17.40;;;;;;;18.74;42.98;100113.10;104710;1294;70047;31
2022/11/05 02:25:02;;;;;;;26.00;16.40;;;;;;;18.72;43.03;100118.39;105182;1285;83582;-91
2022/11/05 02:27:46;;;;;;;27.10;17.00;;;;;;;18.72;43.13;100120.33;104929;1294;70095;-90
2022/11/05 02:30:29;;;;;;;28.00;17.10;;;;;;;18.71;43.13;100125.67;104942;1287;69874;-91
2022/11/05 02:33:20;;;;;;;26.30;15.90;;;;;;;18.72;43.16;100126.94;104972;1287;70104;-90
2022/11/05 02:35:58;;;;;;;26.20;15.80;;;;;;;18.71;43.12;100132.75;105099;1288;74696;-90
2022/11/05 02:38:47;;;;;;;22.90;16.20;;;;;;;18.70;43.18;100136.98;105291;1284;83774;-90
2022/11/05 02:41:27;;;;;;;27.00;15.50;;;;;;;18.70;43.21;100143.30;104813;1287;72589;-90
2022/11/05 02:44:11;;;;;;;24.80;15.40;;;;;;;18.70;43.27;100144.88;105018;1293;69938;-91
2022/11/05 02:46:51;;;;;;;26.90;15.40;;;;;;;18.70;43.28;100139.38;104854;1288;69861;31
2022/11/05 02:51:57;;;;;;;25.50;14.60;;;;;;;18.70;43.39;100138.45;105137;1282;82890;-90
2022/11/05 02:54:36;;;;;;;21.90;14.20;;;;;;;18.70;43.36;100135.95;104842;1291;72278;-90
2022/11/05 02:57:01;;;;;;;21.20;14.50;;;;;;;18.69;43.45;100131.73;105013;1291;70022;-89
2022/11/05 02:59:27;;;;;;;25.40;13.70;;;;;;;18.69;43.39;100128.77;105006;1294;70043;-90
2022/11/05 03:01:53;;;;;;;18.40;13.70;;;;;;;18.69;43.52;100122.61;105018;1284;70600;-90
2022/11/05 03:07:17;;;;;;;21.70;13.80;;;;;;;18.69;43.51;100118.06;104616;1295;72348;-89
2022/11/05 03:10:05;;;;;;;22.30;13.60;;;;;;;18.69;43.60;100121.98;104853;1289;70035;-89
2022/11/05 03:12:31;;;;;;;23.20;14.10;;;;;;;18.69;43.66;100121.52;104905;1278;70013;-89
2022/11/05 03:15:24;;;;;;;21.80;13.70;;;;;;;18.69;43.76;100119.73;104886;1279;70079;-89
2022/11/05 03:17:53;;;;;;;21.80;13.20;;;;;;;18.68;43.66;100120.45;104925;1275;82948;-90
2022/11/05 03:20:23;;;;;;;18.20;12.80;;;;;;;18.68;43.71;100124.08;104889;1279;73658;-90
2022/11/05 03:22:55;;;;;;;23.10;12.90;;;;;;;18.68;43.74;100120.00;104927;1278;69871;-89
2022/11/05 03:27:51;;;;;;;19.90;13.30;;;;;;;18.67;43.76;100123.70;104685;1285;75283;-90
2022/11/05 03:30:17;;;;;;;22.30;13.30;;;;;;;18.68;43.92;100117.44;104744;1278;82878;-89
2022/11/05 03:32:50;;;;;;;19.90;13.20;;;;;;;18.67;43.84;100124.17;104843;1282;68171;-90
2022/11/05 03:35:23;;;;;;;18.50;12.20;;;;;;;18.67;43.93;100124.23;104606;1288;68298;-89
2022/11/05 03:37:50;;;;;;;18.90;12.60;;;;;;;18.66;43.94;100131.31;104938;1288;69958;-89
2022/11/05 03:42:56;;;;;;;22.20;12.40;;;;;;;18.66;43.91;100134.77;104799;1294;82844;-89
2022/11/05 03:45:28;;;;;;;17.90;12.20;;;;;;;18.66;43.99;100128.70;105065;1287;70053;-89
2022/11/05 03:47:55;;;;;;;19.80;13.50;;;;;;;18.66;44.05;100123.70;104984;1288;70117;-89
2022/11/05 03:50:21;;;;;;;18.90;12.60;;;;;;;18.66;44.04;100119.59;105019;1287;70033;-89
2022/11/05 03:52:53;;;;;;;18.30;12.00;;;;;;;18.66;44.12;100115.09;105101;1286;68750;-89
2022/11/05 03:55:30;;;;;;;17.70;12.30;;;;;;;18.66;44.14;100119.58;104673;1288;83984;31
2022/11/05 03:57:55;;;;;;;19.80;12.50;;;;;;;18.65;44.16;100128.40;104590;1294;72399;-89
2022/11/05 04:00:21;;;;;;;20.20;12.80;;;;;;;18.64;44.17;100131.09;105254;1281;68688;-89
2022/11/05 04:02:46;;;;;;;20.10;12.20;;;;;;;18.65;44.16;100130.27;105528;1294;69975;-89
2022/11/05 04:05:12;;;;;;;19.40;11.90;;;;;;;18.65;44.19;100129.02;105885;1290;67442;-89
2022/11/05 04:13:26;;;;;;;20.70;11.80;;;;;;;18.66;44.36;100129.81;105016;1292;69872;-89
2022/11/05 04:18:37;;;;;;;20.30;11.80;;;;;;;18.66;44.39;100129.21;104859;1294;83121;-89
2022/11/05 04:26:33;;;;;;;18.60;12.00;;;;;;;18.64;44.40;100141.70;104870;1287;69897;-90
2022/11/05 04:31:47;;;;;;;19.90;11.30;;;;;;;18.65;44.44;100147.49;105084;1279;81889;-90
2022/11/05 04:34:17;;;;;;;16.00;11.00;;;;;;;18.64;44.39;100146.74;105000;1276;71684;31
2022/11/05 04:36:44;;;;;;;17.80;11.30;;;;;;;18.65;44.45;100148.32;104868;1282;70011;-89
2022/11/05 04:39:10;;;;;;;20.70;11.00;;;;;;;18.64;44.52;100152.03;104843;1282;69977;-89
2022/11/05 04:41:35;;;;;;;20.80;12.20;;;;;;;18.63;44.52;100144.64;104792;1281;69866;-90
2022/11/05 04:44:01;;;;;;;16.30;10.50;;;;;;;18.64;44.43;100140.52;104778;1288;70105;-90
2022/11/05 04:46:29;;;;;;;16.30;11.50;;;;;;;18.63;44.50;100128.69;104977;1279;68510;-89
2022/11/05 04:48:54;;;;;;;20.20;11.70;;;;;;;18.62;44.53;100119.63;104578;1293;69953;-90
2022/11/05 04:51:20;;;;;;;16.70;11.00;;;;;;;18.62;44.63;100117.89;105025;1294;70037;-89
2022/11/05 04:53:45;;;;;;;20.00;10.70;;;;;;;18.62;44.60;100123.75;105097;1288;70021;-90
2022/11/05 04:56:14;;;;;;;18.00;11.10;;;;;;;18.61;44.65;100129.20;104898;1290;67826;-89
2022/11/05 04:58:40;;;;;;;16.80;11.40;;;;;;;18.62;44.66;100132.00;104809;1294;69852;-89
2022/11/05 05:01:13;;;;;;;19.60;12.20;;;;;;;18.61;44.63;100132.35;104781;1294;69959;31
2022/11/05 05:03:39;;;;;;;18.00;11.30;;;;;;;18.61;44.61;100139.02;104714;1293;74428;-89
2022/11/05 05:06:04;;;;;;;21.20;11.70;;;;;;;18.60;44.66;100140.97;104892;1290;70111;-89
2022/11/05 05:08:30;;;;;;;18.10;10.90;;;;;;;18.61;44.61;100144.48;104863;1286;67773;-90
2022/11/05 05:10:55;;;;;;;15.90;10.80;;;;;;;18.60;44.69;100142.09;104905;1290;70090;-89
2022/11/05 05:13:21;;;;;;;20.60;11.00;;;;;;;18.61;44.79;100136.63;104750;1290;67669;-89
2022/11/05 05:15:46;;;;;;;15.30;11.10;;;;;;;18.60;44.76;100146.27;104454;1290;69979;-89
2022/11/05 05:18:12;;;;;;;20.40;11.50;;;;;;;18.60;44.73;100149.96;105045;1287;68496;-90
2022/11/05 05:23:21;;;;;;;17.30;11.50;;;;;;;18.59;44.86;100153.75;104784;1293;69944;-90
2022/11/05 05:25:47;;;;;;;16.20;11.20;;;;;;;18.59;44.87;100154.26;104739;1294;67696;-90
2022/11/05 05:28:12;;;;;;;22.00;11.90;;;;;;;18.58;44.91;100157.27;104691;1291;70020;-90
2022/11/05 05:30:38;;;;;;;18.10;11.20;;;;;;;18.59;44.95;100162.05;104641;1290;69973;-90
2022/11/05 05:33:03;;;;;;;16.30;11.40;;;;;;;18.58;44.90;100167.70;104624;1295;70014;-90
2022/11/05 05:35:29;;;;;;;19.20;11.60;;;;;;;18.58;44.92;100174.52;104610;1293;70097;-89
2022/11/05 05:37:55;;;;;;;18.70;11.30;;;;;;;18.58;45.05;100180.55;104656;1294;69957;-89
2022/11/05 05:40:21;;;;;;;21.30;11.40;;;;;;;18.58;44.91;100187.11;104889;1285;70085;-90
2022/11/05 05:43:05;;;;;;;18.40;11.60;;;;;;;18.58;44.99;100193.89;104441;1287;432637;-90
2022/11/05 05:45:30;;;;;;;17.80;12.10;;;;;;;18.58;45.01;100201.13;104816;1292;69970;-90
2022/11/05 05:47:56;;;;;;;17.70;11.50;;;;;;;18.58;45.10;100204.17;104628;1296;70519;-90
2022/11/05 05:50:21;;;;;;;18.80;11.60;;;;;;;18.57;45.04;100209.94;104625;1288;69869;-90
2022/11/05 05:52:47;;;;;;;18.00;11.30;;;;;;;18.58;45.06;100207.54;104777;1292;69984;-90
2022/11/05 05:55:12;;;;;;;21.10;11.60;;;;;;;18.58;45.06;100204.95;104853;1297;70026;-90
2022/11/05 05:57:38;;;;;;;16.60;11.60;;;;;;;18.58;45.12;100209.69;104652;1293;70053;-90
2022/11/05 06:00:04;;;;;;;22.20;11.70;;;;;;;18.58;45.18;100213.35;104874;1294;70026;-90
2022/11/05 06:02:30;;;;;;;19.00;12.20;;;;;;;18.58;45.19;100210.66;104974;1292;69928;-90
2022/11/05 06:04:56;;;;;;;22.50;12.30;;;;;;;18.58;45.25;100220.02;104957;1287;69965;-89
2022/11/05 06:07:21;;;;;;;18.70;11.30;;;;;;;18.57;45.23;100225.33;105306;1288;68443;-90
2022/11/05 06:12:19;;;;;;;19.60;11.70;;;;;;;18.58;45.35;100235.46;104966;1289;72562;-91
2022/11/05 06:14:49;;;;;;;19.60;12.40;;;;;;;18.58;45.34;100237.30;105031;1289;70005;-91
2022/11/05 06:17:15;;;;;;;22.20;12.20;;;;;;;18.58;45.26;100239.04;104943;1288;69917;-90
2022/11/05 06:19:40;;;;;;;19.10;11.90;;;;;;;18.59;45.29;100246.94;105105;1287;69993;-90
2022/11/05 06:22:06;;;;;;;20.70;12.10;;;;;;;18.58;45.41;100243.38;105015;1288;70009;-90
2022/11/05 06:24:31;;;;;;;23.10;12.80;;;;;;;18.58;45.30;100242.10;104541;1288;70169;-90
2022/11/05 06:26:57;;;;;;;19.80;12.60;;;;;;;18.59;45.47;100243.02;104988;1293;68460;-90
2022/11/05 06:29:22;;;;;;;20.70;12.50;;;;;;;18.59;45.40;100247.10;104921;1295;72498;-89
2022/11/05 06:31:52;;;;;;;22.20;13.00;;;;;;;18.58;45.49;100245.61;104764;1294;69869;-90
2022/11/05 06:34:18;;;;;;;19.30;12.50;;;;;;;18.58;45.49;100252.19;105047;1290;71826;-90
2022/11/05 06:37:07;;;;;;;22.60;12.90;;;;;;;18.58;45.48;100251.41;104795;1293;70002;31
2022/11/05 06:42:06;;;;;;;20.60;13.50;;;;;;;18.57;45.65;100247.91;105103;1285;75432;-90
2022/11/05 06:44:31;;;;;;;21.20;13.00;;;;;;;18.58;45.61;100246.93;105107;1281;69920;-90
2022/11/05 06:46:57;;;;;;;23.60;13.20;;;;;;;18.57;45.72;100241.58;105064;1281;70036;-90
2022/11/05 06:49:25;;;;;;;25.20;13.90;;;;;;;18.58;45.68;100233.79;105117;1291;70047;-89
2022/11/05 06:51:59;;;;;;;21.40;13.30;;;;;;;18.57;45.77;100231.44;105180;1285;69881;-89
2022/11/05 06:54:25;;;;;;;24.50;13.90;;;;;;;18.57;45.89;100231.43;104808;1294;75064;-90
2022/11/05 06:56:50;;;;;;;21.80;13.30;;;;;;;18.57;45.82;100231.44;104838;1297;68550;-89
2022/11/05 06:59:16;;;;;;;28.40;14.30;;;;;;;18.57;45.94;100228.13;105134;1294;70083;-90
2022/11/05 07:01:41;;;;;;;24.90;14.40;;;;;;;18.57;45.99;100237.50;105012;1293;69927;-90
2022/11/05 07:04:07;;;;;;;23.50;14.10;;;;;;;18.57;46.05;100245.29;105196;1287;69952;-90
2022/11/05 07:09:00;;;;;;;21.70;13.50;;;;;;;18.57;46.07;100252.02;104700;1293;73967;-90
2022/11/05 07:11:26;;;;;;;29.30;15.10;;;;;;;18.57;46.18;100243.92;105017;1288;70037;-90
2022/11/05 07:13:51;;;;;;;24.20;14.90;;;;;;;18.57;46.21;100245.64;104836;1291;70040;-90
2022/11/05 07:16:17;;;;;;;28.20;14.00;;;;;;;18.57;46.20;100246.33;104853;1292;69891;-90
2022/11/05 07:18:46;;;;;;;28.50;14.80;;;;;;;18.57;46.27;100242.08;104826;1276;69895;-89
2022/11/05 07:21:12;;;;;;;24.20;13.80;;;;;;;18.57;46.33;100236.73;104792;1287;69969;-89
2022/11/05 07:23:37;;;;;;;23.30;14.00;;;;;;;18.57;46.34;100233.63;104842;1295;70209;-90
2022/11/05 07:26:03;;;;;;;24.50;14.00;;;;;;;18.56;46.31;100235.05;104975;1287;69941;-90
2022/11/05 07:28:33;;;;;;;26.00;14.80;;;;;;;18.56;46.40;100236.73;104952;1287;69998;-90
2022/11/05 07:30:58;;;;;;;25.40;15.10;;;;;;;18.55;46.54;100232.50;105145;1288;72385;-90
2022/11/05 07:35:55;;;;;;;25.60;14.70;;;;;;;18.55;46.59;100230.30;104850;1276;69895;-89
2022/11/05 07:38:21;;;;;;;24.80;15.00;;;;;;;18.55;46.60;100229.08;104994;1293;74492;-90
2022/11/05 07:40:47;;;;;;;25.40;14.90;;;;;;;18.54;46.54;100232.74;104985;1288;70078;-91
2022/11/05 07:43:13;;;;;;;29.70;15.60;;;;;;;18.55;46.63;100241.26;104947;1281;69980;-89
2022/11/05 07:45:38;;;;;;;25.10;15.60;;;;;;;18.56;46.71;100243.05;104543;1287;69846;-89
2022/11/05 07:48:04;;;;;;;26.30;15.70;;;;;;;18.56;46.72;100244.42;104573;1295;69867;-89
2022/11/05 07:50:34;;;;;;;31.60;16.50;;;;;;;18.56;46.82;100240.30;104787;1295;83980;-90
2022/11/05 07:53:01;;;;;;;30.00;16.90;;;;;;;18.56;46.85;100239.33;104913;1294;73341;-89
2022/11/05 07:55:27;;;;;;;29.60;15.40;;;;;;;18.57;46.94;100239.53;105050;1290;69932;-90
2022/11/05 07:57:52;;;;;;;28.70;15.80;;;;;;;18.57;46.92;100239.84;104847;1286;70047;-89
2022/11/05 08:02:59;;;;;;;27.90;16.90;;;;;;;18.58;47.03;100237.71;104985;1287;83770;-91
2022/11/05 08:05:24;;;;;;;29.80;16.70;;;;;;;18.58;47.15;100236.99;104967;1287;79941;-91
2022/11/05 08:07:51;;;;;;;29.30;16.40;;;;;;;18.58;47.16;100240.88;104940;1295;70043;-91
2022/11/05 08:10:17;;;;;;;32.20;16.30;;;;;;;18.59;47.20;100237.72;104881;1291;69970;-90
2022/11/05 08:12:43;;;;;;;29.10;16.40;;;;;;;18.59;47.16;100236.65;105245;1287;69931;-90
2022/11/05 08:15:08;;;;;;;27.90;16.20;;;;;;;18.60;47.23;100233.34;104586;1282;69869;-90
2022/11/05 08:17:35;;;;;;;25.20;15.90;;;;;;;18.60;47.26;100235.09;104877;1288;69966;-90
2022/11/05 08:20:00;;;;;;;29.70;17.10;;;;;;;18.60;47.21;100236.98;104951;1282;69948;-89
2022/11/05 08:22:26;;;;;;;35.60;17.70;;;;;;;18.61;47.32;100238.55;105067;1290;69987;-89
2022/11/05 08:24:52;;;;;;;30.20;17.40;;;;;;;18.62;47.41;100233.45;105080;1281;70006;-89
2022/11/05 08:29:54;;;;;;;32.10;16.60;;;;;;;18.64;47.30;100231.02;104852;1294;69973;-90
2022/11/05 08:32:19;;;;;;;31.20;17.00;;;;;;;18.64;47.40;100228.27;104919;1285;70015;-89
2022/11/05 08:34:45;;;;;;;27.10;15.90;;;;;;;18.64;47.40;100230.58;104812;1274;70454;-89
2022/11/05 08:37:10;;;;;;;29.90;17.60;;;;;;;18.64;47.45;100227.92;105948;1291;67443;-89
2022/11/05 08:39:44;;;;;;;30.90;17.30;;;;;;;18.65;47.40;100219.21;106342;1290;68417;-90
2022/11/05 08:47:50;;;;;;;35.40;19.00;;;;;;;18.69;47.60;100211.07;106544;1294;82924;-89
2022/11/05 08:50:16;;;;;;;31.40;17.40;;;;;;;18.70;47.58;100211.08;106513;1287;67362;-89
2022/11/05 08:52:41;;;;;;;32.10;18.30;;;;;;;18.71;47.60;100212.52;106210;1288;67960;-90
2022/11/05 08:55:07;;;;;;;30.50;18.60;;;;;;;18.72;47.62;100219.96;105321;1287;69875;-90
2022/11/05 08:57:33;;;;;;;32.10;18.40;;;;;;;18.73;47.63;100221.45;105147;1291;69966;-89
2022/11/05 08:59:58;;;;;;;32.70;19.00;;;;;;;18.74;47.71;100218.75;104706;1287;69920;-90
2022/11/05 09:02:24;;;;;;;32.10;18.60;;;;;;;18.74;47.76;100219.36;104875;1296;70069;-90
2022/11/05 09:04:49;;;;;;;31.20;18.20;;;;;;;18.74;47.67;100215.80;105043;1285;70107;-89
2022/11/05 09:07:15;;;;;;;32.90;18.00;;;;;;;18.75;47.61;100219.00;104918;1285;69944;-90
2022/11/05 09:09:40;;;;;;;35.50;18.80;;;;;;;18.75;47.67;100225.79;105067;1281;69976;-89
2022/11/05 09:14:44;;;;;;;31.30;18.90;;;;;;;18.75;47.71;100234.30;104843;1293;70060;-90
2022/11/05 09:17:17;;;;;;;33.60;19.60;;;;;;;18.75;47.80;100225.89;105095;1295;70114;-90
2022/11/05 09:19:42;;;;;;;32.10;19.40;;;;;;;18.74;47.83;100224.46;104988;1287;82901;-90
2022/11/05 09:22:11;;;;;;;31.20;18.50;;;;;;;18.74;47.86;100224.96;105022;1288;70157;-89
2022/11/05 09:24:40;;;;;;;32.00;17.70;;;;;;;18.74;47.86;100223.04;105001;1290;69896;-91
2022/11/05 09:27:15;;;;;;;31.00;18.50;;;;;;;18.75;47.85;100226.66;105145;1287;70009;31
2022/11/05 09:29:41;;;;;;;34.90;19.50;;;;;;;18.76;47.84;100224.67;105721;1287;74460;-90
2022/11/05 09:32:06;;;;;;;31.10;19.20;;;;;;;18.77;47.97;100228.30;105834;1293;67626;-90
2022/11/05 09:34:32;;;;;;;34.10;19.30;;;;;;;18.79;47.95;100229.47;105907;1285;67925;-91
2022/11/05 09:36:58;;;;;;;34.10;19.40;;;;;;;18.79;48.12;100228.70;105706;1288;69911;-91
2022/11/05 09:39:27;;;;;;;32.40;18.30;;;;;;;18.80;48.00;100230.18;105003;1291;69982;-89
2022/11/05 09:44:43;;;;;;;37.00;19.50;;;;;;;18.83;48.05;100231.08;104877;1284;73406;-90
2022/11/05 09:47:27;;;;;;;34.20;18.80;;;;;;;18.82;48.18;100228.92;104691;1278;69847;-89
2022/11/05 09:49:56;;;;;;;36.50;19.60;;;;;;;18.83;48.06;100230.81;104864;1287;69718;-90
2022/11/05 09:52:27;;;;;;;33.90;19.60;;;;;;;18.83;48.15;100229.42;105145;1289;74401;-91
2022/11/05 09:54:53;;;;;;;32.60;19.50;;;;;;;18.83;48.10;100225.52;104915;1294;82884;-90
2022/11/05 09:57:22;;;;;;;32.90;19.40;;;;;;;18.83;48.16;100218.29;104950;1294;70095;-90
2022/11/05 10:02:29;;;;;;;33.50;18.90;;;;;;;18.84;48.20;100217.67;104786;1285;69928;-90
2022/11/05 10:04:59;;;;;;;35.50;19.70;;;;;;;18.85;48.13;100224.45;105074;1274;75435;-91
2022/11/05 10:07:26;;;;;;;;;;;;;;;18.85;48.26;100219.88;105104;1285;82830;-90
2022/11/05 10:10:03;;;;;;;32.80;18.50;;;;;;;18.82;48.24;100219.39;105073;1271;69882;-90
2022/11/05 10:12:38;;;;;;;35.30;19.10;;;;;;;18.83;48.26;100220.07;105263;1293;70918;-90
2022/11/05 10:15:28;;;;;;;32.80;19.30;;;;;;;18.84;48.29;100219.61;104985;1287;69928;31
2022/11/05 10:20:30;;;;;;;33.40;19.10;;;;;;;18.84;48.35;100223.59;105084;1284;69931;-90
2022/11/05 10:23:00;;;;;;;32.60;18.10;;;;;;;18.85;48.30;100218.44;104925;1289;72340;-90
2022/11/05 10:25:29;;;;;;;31.80;19.10;;;;;;;18.84;48.35;100213.23;104995;1290;69688;-90
2022/11/05 10:27:55;;;;;;;39.10;19.70;;;;;;;18.85;48.39;100211.62;105119;1285;68462;-90
2022/11/05 10:30:20;;;;;;;33.40;19.40;;;;;;;18.85;48.39;100216.25;104849;1295;70000;-90
2022/11/05 10:35:17;;;;;;;35.30;19.40;;;;;;;18.85;48.39;100212.12;104900;1283;73178;-89
2022/11/05 10:37:45;;;;;;;31.70;18.80;;;;;;;18.85;48.48;100206.51;104896;1285;69809;-90
2022/11/05 10:40:38;;;;;;;30.40;18.80;;;;;;;18.85;48.48;100208.81;105010;1288;69919;-91
2022/11/05 10:43:07;;;;;;;36.50;19.00;;;;;;;18.85;48.48;100210.80;105002;1287;74499;-91
2022/11/05 10:45:33;;;;;;;34.80;19.00;;;;;;;18.85;48.54;100208.05;104953;1294;82901;-90
2022/11/05 10:48:21;;;;;;;33.90;18.60;;;;;;;18.86;48.53;100209.38;105152;1285;70220;-90
2022/11/05 10:53:14;;;;;;;28.20;18.50;;;;;;;18.87;48.60;100205.36;104950;1287;69966;-90
2022/11/05 10:55:41;;;;;;;31.90;19.40;;;;;;;18.88;48.63;100202.45;105030;1294;70025;-90
2022/11/05 10:58:18;;;;;;;31.80;18.40;;;;;;;18.88;48.59;100203.63;104984;1288;82912;-90
2022/11/05 11:00:48;;;;;;;31.30;18.90;;;;;;;18.88;48.61;100197.05;104915;1282;72387;-90
2022/11/05 11:03:44;;;;;;;33.60;19.30;;;;;;;18.89;48.53;100197.80;105221;1287;69846;-90
2022/11/05 11:06:24;;;;;;;32.00;18.70;;;;;;;18.89;48.57;100194.00;104988;1294;69836;-91
2022/11/05 11:08:55;;;;;;;31.60;19.20;;;;;;;18.90;48.61;100194.50;104853;1293;74599;31
2022/11/05 11:14:10;;;;;;;32.10;19.10;;;;;;;18.91;48.77;100193.89;104851;1288;73205;-91
2022/11/05 11:16:43;;;;;;;30.60;19.00;;;;;;;18.91;48.81;100189.00;105063;1290;70153;-90
2022/11/05 11:19:28;;;;;;;36.30;19.80;;;;;;;18.92;48.71;100186.61;104981;1287;68146;-91
2022/11/05 11:22:02;;;;;;;28.20;19.00;;;;;;;18.92;48.83;100187.33;105134;1282;74360;-90
2022/11/05 11:24:29;;;;;;;31.30;18.90;;;;;;;18.92;48.92;100189.98;105010;1288;82941;-90
2022/11/05 11:27:00;;;;;;;28.90;18.20;;;;;;;18.93;48.84;100185.65;104960;1290;70015;-90
2022/11/05 11:29:26;;;;;;;30.00;18.10;;;;;;;18.93;48.91;100181.31;104619;1296;70055;-90
2022/11/05 11:31:54;;;;;;;29.10;18.40;;;;;;;18.94;48.90;100178.81;105075;1292;70079;-90
2022/11/05 11:34:30;;;;;;;31.70;18.30;;;;;;;18.94;48.91;100181.69;105106;1287;74269;-91
2022/11/05 11:37:10;;;;;;;30.80;17.80;;;;;;;18.95;48.85;100182.14;105074;1288;82952;-90
2022/11/05 11:39:35;;;;;;;30.20;18.40;;;;;;;18.95;48.85;100180.41;105418;1285;73563;-91
2022/11/05 11:42:04;;;;;;;32.40;19.20;;;;;;;18.95;48.89;100174.60;105144;1285;70021;-90
2022/11/05 11:47:22;;;;;;;27.80;18.40;;;;;;;18.95;48.88;100169.92;105007;1294;72077;-91
2022/11/05 11:49:58;;;;;;;32.00;18.30;;;;;;;18.96;48.88;100162.02;105194;1291;82946;-90
2022/11/05 11:52:35;;;;;;;29.30;18.10;;;;;;;18.97;48.96;100158.47;105261;1285;73410;-90
2022/11/05 11:55:10;;;;;;;26.90;17.80;;;;;;;18.97;48.97;100161.37;105359;1282;70437;-92
2022/11/05 11:57:43;;;;;;;25.70;18.40;;;;;;;18.97;49.00;100159.23;105424;1291;69937;-89
2022/11/05 12:00:09;;;;;;;29.70;17.90;;;;;;;18.98;48.94;100161.07;105161;1296;74610;-90
2022/11/05 12:02:59;;;;;;;29.40;18.60;;;;;;;18.99;48.90;100167.30;105015;1277;69799;31
2022/11/05 12:08:02;;;;;;;29.40;18.20;;;;;;;19.00;48.96;100163.63;105039;1292;70552;-90
2022/11/05 12:10:31;;;;;;;28.60;17.90;;;;;;;19.00;49.02;100162.06;104991;1296;69969;-90
2022/11/05 12:13:19;;;;;;;28.60;17.80;;;;;;;19.01;48.98;100157.21;105515;1285;74586;-90
2022/11/05 12:16:03;;;;;;;27.60;18.30;;;;;;;19.02;48.98;100157.01;105878;1287;82851;-90
2022/11/05 12:18:44;;;;;;;26.00;18.00;;;;;;;19.02;49.01;100157.86;105963;1276;72249;-91
2022/11/05 12:21:19;;;;;;;29.40;18.00;;;;;;;19.02;48.92;100160.83;105300;1293;69842;-90
2022/11/05 12:24:04;;;;;;;28.70;17.90;;;;;;;19.03;48.95;100154.75;105465;1281;69888;-90
2022/11/05 12:26:52;;;;;;;25.90;17.80;;;;;;;19.04;49.07;100151.64;104872;1295;74398;31
2022/11/05 12:32:14;;;;;;;27.00;17.90;;;;;;;19.04;49.05;100162.52;105000;1284;72496;-90
2022/11/05 12:34:59;;;;;;;30.10;17.10;;;;;;;19.04;49.03;100163.13;105168;1281;69875;-90
2022/11/05 12:37:40;;;;;;;28.50;17.70;;;;;;;19.04;48.98;100163.27;105161;1283;69980;-90
2022/11/05 12:40:21;;;;;;;;;;;;;;;19.05;49.04;100160.07;105123;1288;74406;-91
2022/11/05 12:43:03;;;;;;;27.30;18.90;;;;;;;19.02;49.05;100155.36;105225;1287;83393;-90
2022/11/05 12:45:52;;;;;;;25.00;17.50;;;;;;;19.03;49.08;100162.10;105099;1288;72237;-91
2022/11/05 12:48:39;;;;;;;28.40;18.00;;;;;;;19.03;49.07;100156.90;105129;1285;70040;-91
2022/11/05 12:51:23;;;;;;;31.50;18.50;;;;;;;19.03;49.05;100161.13;105126;1291;70146;-90
2022/11/05 12:53:59;;;;;;;27.60;18.40;;;;;;;19.04;48.99;100161.48;105276;1286;73251;-90
2022/11/05 12:56:45;;;;;;;32.20;17.20;;;;;;;19.03;49.15;100160.16;104918;1284;83474;31
2022/11/05 13:01:56;;;;;;;28.80;17.80;;;;;;;19.04;49.14;100163.84;105378;1290;69952;-90
2022/11/05 13:04:33;;;;;;;29.80;17.80;;;;;;;19.04;49.12;100159.91;105006;1287;69899;-90
2022/11/05 13:07:00;;;;;;;30.70;18.30;;;;;;;19.03;49.31;100165.16;104950;1288;74613;-90
2022/11/05 13:09:32;;;;;;;25.70;17.30;;;;;;;19.03;49.13;100171.02;105100;1287;82910;-90
2022/11/05 13:12:11;;;;;;;25.90;17.60;;;;;;;19.02;49.13;100164.13;105036;1293;72335;-90
2022/11/05 13:14:43;;;;;;;31.00;18.20;;;;;;;19.02;49.27;100166.17;105031;1291;70085;-90
2022/11/05 13:23:06;;;;;;;26.10;17.80;;;;;;;19.02;49.23;100163.16;105498;1284;83370;-90
2022/11/05 13:25:53;;;;;;;26.70;17.80;;;;;;;19.01;49.35;100156.43;104815;1295;72500;-90
2022/11/05 13:28:37;;;;;;;25.30;17.50;;;;;;;19.01;49.45;100161.48;105072;1281;69976;-91
2022/11/05 13:31:04;;;;;;;25.50;17.70;;;;;;;19.00;49.40;100157.00;104986;1290;70027;-90